createdAt,value
2022-12-15T00:00:45.342Z,96829.16
2022-12-15T00:03:31.713Z,96830.00
2022-12-15T00:06:19.376Z,96841.56
2022-12-15T00:09:07.528Z,96842.38
2022-12-15T00:11:58.366Z,96844.25
2022-12-15T00:14:44.179Z,96839.88
2022-12-15T00:17:30.545Z,96838.06
2022-12-15T00:20:16.448Z,96843.41
2022-12-15T00:23:02.341Z,96854.16
2022-12-15T00:25:48.699Z,96858.47
2022-12-15T00:28:36.017Z,96858.47
2022-12-15T00:31:21.998Z,96868.41
2022-12-15T00:34:08.553Z,96863.84
2022-12-15T00:36:54.700Z,96874.56
2022-12-15T00:39:23.294Z,96875.00
2022-12-15T00:41:51.779Z,96882.81
2022-12-15T00:44:23.290Z,96884.50
2022-12-15T00:46:57.093Z,96882.00
2022-12-15T00:49:44.397Z,96883.69
2022-12-15T00:52:30.479Z,96889.03
2022-12-15T00:55:16.494Z,96893.56
2022-12-15T00:58:02.770Z,96901.63
2022-12-15T01:00:50.058Z,96890.06
2022-12-15T01:03:38.712Z,96892.75
2022-12-15T01:06:25.464Z,96898.09
2022-12-15T01:09:11.252Z,96905.34
2022-12-15T01:11:57.444Z,96906.16
2022-12-15T01:14:43.760Z,96907.19
2022-12-15T01:17:30.903Z,96905.34
2022-12-15T01:20:15.673Z,96907.19
2022-12-15T01:22:44.569Z,96908.84
2022-12-15T01:25:13.353Z,96913.41
2022-12-15T01:27:42.001Z,96908.84
2022-12-15T01:30:12.257Z,96915.88
2022-12-15T01:32:46.009Z,96917.94
2022-12-15T01:35:15.034Z,96909.88
2022-12-15T01:37:43.682Z,96922.50
2022-12-15T01:40:31.980Z,96926.81
2022-12-15T01:43:00.545Z,96927.03
2022-12-15T01:45:53.216Z,96922.50
2022-12-15T01:48:28.365Z,96925.16
2022-12-15T01:51:16.799Z,96925.16
2022-12-15T01:53:50.220Z,96923.31
2022-12-15T01:56:19.188Z,96926.00
2022-12-15T01:58:49.270Z,96934.03
2022-12-15T02:01:17.958Z,96938.59
2022-12-15T02:03:48.303Z,96939.41
2022-12-15T02:06:17.863Z,96935.91
2022-12-15T02:08:47.409Z,96945.59
2022-12-15T02:11:50.981Z,96943.97
2022-12-15T02:14:26.714Z,96943.13
2022-12-15T02:17:13.797Z,96944.97
2022-12-15T02:20:30.294Z,96952.00
2022-12-15T02:23:56.096Z,96957.56
2022-12-15T02:27:13.947Z,96965.63
2022-12-15T02:30:31.487Z,96963.97
2022-12-15T02:33:08.386Z,96969.97
2022-12-15T02:35:47.192Z,96973.66
2022-12-15T02:38:15.789Z,96973.66
2022-12-15T02:40:44.260Z,96981.72
2022-12-15T02:43:12.747Z,96990.59
2022-12-15T02:45:50.833Z,96994.13
2022-12-15T02:48:29.054Z,96990.59
2022-12-15T02:51:08.842Z,96989.78
2022-12-15T02:54:03.770Z,96999.69
2022-12-15T02:56:36.958Z,96994.31
2022-12-15T02:59:11.285Z,96999.69
2022-12-15T03:01:45.385Z,97000.50
2022-12-15T03:04:13.988Z,96995.13
2022-12-15T03:06:42.603Z,97004.22
2022-12-15T03:09:11.195Z,97006.91
2022-12-15T03:11:39.653Z,97011.25
2022-12-15T03:14:08.413Z,97005.06
2022-12-15T03:16:37.024Z,97009.59
2022-12-15T03:19:06.919Z,97010.41
2022-12-15T03:21:35.537Z,97025.69
2022-12-15T03:24:04.408Z,97026.53
2022-12-15T03:26:33.769Z,97033.75
2022-12-15T03:29:02.394Z,97031.06
2022-12-15T03:31:31.108Z,97030.25
2022-12-15T03:34:00.087Z,97031.91
2022-12-15T03:36:30.112Z,97036.44
2022-12-15T03:38:58.527Z,97030.25
2022-12-15T03:41:27.065Z,97029.22
2022-12-15T03:43:55.603Z,97036.44
2022-12-15T03:46:24.288Z,97042.63
2022-12-15T03:48:52.761Z,97045.31
2022-12-15T03:51:21.516Z,97052.53
2022-12-15T03:53:51.473Z,97057.91
2022-12-15T03:56:20.059Z,97063.28
2022-12-15T03:58:48.751Z,97062.22
2022-12-15T04:01:25.130Z,97068.63
2022-12-15T04:04:00.058Z,97073.19
2022-12-15T04:06:29.326Z,97069.66
2022-12-15T04:08:59.492Z,97072.34
2022-12-15T04:11:28.133Z,97072.34
2022-12-15T04:13:56.654Z,97072.34
2022-12-15T04:16:25.381Z,97072.34
2022-12-15T04:19:07.792Z,97079.38
2022-12-15T04:21:36.543Z,97086.59
2022-12-15T04:24:24.664Z,97088.44
2022-12-15T04:27:10.857Z,97093.81
2022-12-15T04:29:56.873Z,97088.44
2022-12-15T04:32:43.218Z,97093.81
2022-12-15T04:35:29.768Z,97101.84
2022-12-15T04:38:16.022Z,97105.38
2022-12-15T04:41:03.220Z,97115.28
2022-12-15T04:43:49.326Z,97116.13
2022-12-15T04:46:35.252Z,97108.91
2022-12-15T04:49:21.538Z,97117.78
2022-12-15T04:52:07.545Z,97116.13
2022-12-15T04:54:53.723Z,97120.66
2022-12-15T04:57:41.090Z,97129.72
2022-12-15T05:00:29.610Z,97141.28
2022-12-15T05:03:18.559Z,97139.44
2022-12-15T05:06:05.045Z,97142.13
2022-12-15T05:08:51.377Z,97148.53
2022-12-15T05:11:37.456Z,97152.84
2022-12-15T05:14:24.728Z,97156.56
2022-12-15T05:17:10.997Z,97157.38
2022-12-15T05:19:56.763Z,97175.34
2022-12-15T05:22:42.875Z,97170.00
2022-12-15T05:25:28.948Z,97186.09
2022-12-15T05:28:14.614Z,97196.81
2022-12-15T05:31:02.087Z,97202.19
2022-12-15T05:33:31.071Z,97203.22
2022-12-15T05:35:59.759Z,97204.88
2022-12-15T05:38:28.249Z,97196.00
2022-12-15T05:40:59.473Z,97187.13
2022-12-15T05:43:28.539Z,97202.19
2022-12-15T05:46:03.440Z,97197.88
2022-12-15T05:48:32.078Z,97204.88
2022-12-15T05:51:05.579Z,97213.13
2022-12-15T05:53:34.387Z,97229.03
2022-12-15T05:56:03.863Z,97229.03
2022-12-15T05:58:32.629Z,97235.44
2022-12-15T06:01:07.537Z,97252.16
2022-12-15T06:03:36.379Z,97242.44
2022-12-15T06:06:05.583Z,97242.44
2022-12-15T06:08:35.219Z,97252.38
2022-12-15T06:11:03.928Z,97254.84
2022-12-15T06:13:34.844Z,97258.56
2022-12-15T06:16:06.768Z,97265.56
2022-12-15T06:18:37.574Z,97277.16
2022-12-15T06:21:08.657Z,97283.34
2022-12-15T06:23:37.192Z,97286.66
2022-12-15T06:26:10.368Z,97297.41
2022-12-15T06:28:38.877Z,97297.41
2022-12-15T06:31:10.371Z,97311.03
2022-12-15T06:33:38.952Z,97300.28
2022-12-15T06:36:09.467Z,97304.19
2022-12-15T06:38:38.159Z,97308.75
2022-12-15T06:41:08.005Z,97324.25
2022-12-15T06:43:36.629Z,97327.53
2022-12-15T06:46:05.436Z,97314.13
2022-12-15T06:48:35.310Z,97315.78
2022-12-15T06:51:05.175Z,97322.16
2022-12-15T06:53:34.304Z,97325.06
2022-12-15T06:56:03.420Z,97333.13
2022-12-15T06:58:31.996Z,97320.91
2022-12-15T07:01:01.934Z,97338.66
2022-12-15T07:03:31.075Z,97339.50
2022-12-15T07:06:06.528Z,97357.28
2022-12-15T07:08:41.185Z,97365.31
2022-12-15T07:11:12.125Z,97389.47
2022-12-15T07:13:40.856Z,97379.72
2022-12-15T07:16:11.246Z,97379.56
2022-12-15T07:18:40.735Z,97400.00
2022-12-15T07:21:10.809Z,97393.56
2022-12-15T07:23:54.087Z,97404.50
2022-12-15T07:26:24.732Z,97398.50
2022-12-15T07:28:54.524Z,97399.50
2022-12-15T07:31:23.554Z,97411.28
2022-12-15T07:33:54.720Z,97413.56
2022-12-15T07:36:24.930Z,97431.34
2022-12-15T07:38:53.528Z,97413.81
2022-12-15T07:41:22.091Z,97414.66
2022-12-15T07:43:50.657Z,97423.72
2022-12-15T07:46:19.590Z,97420.88
2022-12-15T07:48:50.897Z,97420.88
2022-12-15T07:51:21.355Z,97426.44
2022-12-15T07:53:52.464Z,97420.47
2022-12-15T07:56:21.569Z,97432.03
2022-12-15T07:58:50.095Z,97436.75
2022-12-15T08:01:18.794Z,97436.97
2022-12-15T08:03:48.328Z,97445.03
2022-12-15T08:06:17.072Z,97449.53
2022-12-15T08:08:50.490Z,97440.47
2022-12-15T08:11:22.388Z,97453.91
2022-12-15T08:14:10.455Z,97449.34
2022-12-15T08:16:40.025Z,97461.13
2022-12-15T08:19:10.330Z,97478.88
2022-12-15T08:21:40.072Z,97480.28
2022-12-15T08:24:09.198Z,97482.78
2022-12-15T08:26:39.381Z,97483.59
2022-12-15T08:29:48.892Z,97488.97
2022-12-15T08:31:57.975Z,97494.34
2022-12-15T08:34:26.496Z,97501.38
2022-12-15T08:36:55.607Z,97496.03
2022-12-15T08:39:24.211Z,97506.75
2022-12-15T08:41:54.169Z,97507.75
2022-12-15T08:44:23.922Z,97508.78
2022-12-15T08:46:52.443Z,97496.72
2022-12-15T08:49:22.348Z,97499.44
2022-12-15T08:51:51.808Z,97514.16
2022-12-15T08:54:21.494Z,97508.41
2022-12-15T08:56:50.233Z,97512.88
2022-12-15T08:59:20.313Z,97508.16
2022-12-15T09:01:48.937Z,97506.50
2022-12-15T09:04:17.746Z,97511.88
2022-12-15T09:06:50.516Z,97510.84
2022-12-15T09:09:19.807Z,97503.59
2022-12-15T09:11:48.657Z,97510.84
2022-12-15T09:14:17.358Z,97517.03
2022-12-15T09:16:50.727Z,97516.84
2022-12-15T09:19:22.556Z,97513.69
2022-12-15T09:21:51.025Z,97505.47
2022-12-15T09:24:28.741Z,97517.84
2022-12-15T09:27:03.398Z,97524.06
2022-12-15T09:29:32.541Z,97529.44
2022-12-15T09:32:02.415Z,97534.81
2022-12-15T09:34:31.821Z,97532.94
2022-12-15T09:37:00.294Z,97534.81
2022-12-15T09:39:28.976Z,97538.31
2022-12-15T09:42:00.482Z,97549.88
2022-12-15T09:44:30.358Z,97547.19
2022-12-15T09:47:20.271Z,97554.44
2022-12-15T09:49:56.687Z,97544.34
2022-12-15T09:52:27.655Z,97551.75
2022-12-15T09:54:56.258Z,97551.75
2022-12-15T09:57:38.483Z,97536.28
2022-12-15T10:00:16.024Z,97533.59
2022-12-15T10:03:14.511Z,97537.94
2022-12-15T10:06:16.171Z,97551.91
2022-12-15T10:08:50.646Z,97550.00
2022-12-15T10:14:40.623Z,97556.63
2022-12-15T10:17:21.620Z,97554.81
2022-12-15T10:19:56.929Z,97554.22
2022-12-15T10:22:27.128Z,97553.22
2022-12-15T10:25:11.738Z,97544.94
2022-12-15T10:28:09.226Z,97542.47
2022-12-15T10:30:38.607Z,97549.06
2022-12-15T10:33:16.360Z,97548.84
2022-12-15T10:35:46.612Z,97542.47
2022-12-15T10:38:26.569Z,97538.97
2022-12-15T10:40:56.360Z,97535.44
2022-12-15T10:43:30.639Z,97540.78
2022-12-15T10:46:08.523Z,97522.88
2022-12-15T10:48:37.246Z,97531.09
2022-12-15T10:51:23.423Z,97538.09
2022-12-15T10:53:55.370Z,97541.66
2022-12-15T10:59:25.219Z,97545.16
2022-12-15T11:01:54.367Z,97545.16
2022-12-15T11:04:28.467Z,97545.97
2022-12-15T11:07:03.080Z,97549.72
2022-12-15T11:09:35.303Z,97546.81
2022-12-15T11:12:21.546Z,97565.81
2022-12-15T11:14:51.659Z,97562.91
2022-12-15T11:17:22.240Z,97563.94
2022-12-15T11:20:00.019Z,97580.22
2022-12-15T11:22:40.929Z,97588.94
2022-12-15T11:25:23.989Z,97576.53
2022-12-15T11:27:53.138Z,97572.00
2022-12-15T11:30:23.997Z,97588.94
2022-12-15T11:32:55.866Z,97587.28
2022-12-15T11:35:26.979Z,97584.38
2022-12-15T11:38:02.319Z,97583.56
2022-12-15T11:40:40.854Z,97588.94
2022-12-15T11:43:55.227Z,97591.63
2022-12-15T11:46:24.417Z,97585.22
2022-12-15T11:49:13.199Z,97583.56
2022-12-15T11:51:43.904Z,97590.78
2022-12-15T11:54:25.796Z,97595.94
2022-12-15T11:57:00.675Z,97595.94
2022-12-15T11:59:43.816Z,97603.19
2022-12-15T12:02:33.824Z,97605.59
2022-12-15T12:05:18.672Z,97601.69
2022-12-15T12:07:49.100Z,97613.47
2022-12-15T12:10:30.727Z,97613.47
2022-12-15T12:13:05.291Z,97617.63
2022-12-15T12:15:37.522Z,97613.75
2022-12-15T12:18:11.385Z,97611.06
2022-12-15T12:20:44.723Z,97607.50
2022-12-15T12:23:18.085Z,97600.31
2022-12-15T12:26:02.600Z,97598.84
2022-12-15T12:28:36.174Z,97591.22
2022-12-15T12:31:05.181Z,97588.53
2022-12-15T12:33:36.558Z,97590.19
2022-12-15T12:36:08.381Z,97593.91
2022-12-15T12:38:39.367Z,97598.25
2022-12-15T12:41:11.916Z,97608.97
2022-12-15T12:43:42.670Z,97607.34
2022-12-15T12:46:15.403Z,97618.06
2022-12-15T12:48:48.460Z,97612.72
2022-12-15T12:51:26.600Z,97613.75
2022-12-15T12:53:55.195Z,97611.06
2022-12-15T12:56:39.238Z,97613.75
2022-12-15T12:59:36.519Z,97619.94
2022-12-15T13:02:55.330Z,97612.88
2022-12-15T13:05:30.886Z,97613.75
2022-12-15T13:08:52.066Z,97606.50
2022-12-15T13:12:00.855Z,97589.59
2022-12-15T13:14:44.514Z,97605.69
2022-12-15T13:17:27.846Z,97596.59
2022-12-15T13:20:28.773Z,97601.97
2022-12-15T13:23:13.588Z,97612.72
2022-12-15T13:25:48.577Z,97599.28
2022-12-15T13:28:45.909Z,97598.47
2022-12-15T13:31:49.146Z,97597.63
2022-12-15T13:34:25.910Z,97603.81
2022-12-15T13:37:03.550Z,97610.03
2022-12-15T13:39:55.434Z,97612.06
2022-12-15T13:42:35.060Z,97619.09
2022-12-15T13:45:44.184Z,97629.84
2022-12-15T13:48:37.439Z,97638.72
2022-12-15T13:51:30.221Z,97639.72
2022-12-15T13:54:02.434Z,97641.41
2022-12-15T13:56:50.951Z,97649.47
2022-12-15T13:59:38.889Z,97656.69
2022-12-15T14:02:26.721Z,97667.44
2022-12-15T14:05:14.840Z,97668.44
2022-12-15T14:07:50.999Z,97671.94
2022-12-15T14:10:24.632Z,97680.00
2022-12-15T14:12:53.889Z,97680.84
2022-12-15T14:15:26.545Z,97665.94
2022-12-15T14:17:57.056Z,97671.75
2022-12-15T14:20:27.863Z,97678.78
2022-12-15T14:22:56.344Z,97689.72
2022-12-15T14:25:26.187Z,97698.59
2022-12-15T14:27:54.931Z,97704.16
2022-12-15T14:30:29.588Z,97715.75
2022-12-15T14:33:01.789Z,97721.94
2022-12-15T14:35:32.422Z,97719.44
2022-12-15T14:38:02.953Z,97714.06
2022-12-15T14:40:31.475Z,97706.22
2022-12-15T14:43:00.119Z,97703.31
2022-12-15T14:45:30.197Z,97710.16
2022-12-15T14:50:51.209Z,97727.88
2022-12-15T14:53:20.062Z,97724.53
2022-12-15T14:55:48.712Z,97726.88
2022-12-15T14:58:30.728Z,97727.47
2022-12-15T15:00:59.680Z,97717.78
2022-12-15T15:03:09.428Z,97562.59
2022-12-15T15:03:11.748Z,97537.28
2022-12-15T15:03:37.246Z,97726.66
2022-12-15T15:06:07.133Z,97717.56
2022-12-15T15:08:37.891Z,97713.22
2022-12-15T15:11:22.454Z,97724.81
2022-12-15T15:13:53.918Z,97735.09
2022-12-15T15:16:24.764Z,97732.84
2022-12-15T15:18:55.971Z,97723.53
2022-12-15T15:21:25.633Z,97725.63
2022-12-15T15:24:01.977Z,97727.47
2022-12-15T15:26:30.994Z,97729.16
2022-12-15T15:28:59.725Z,97738.03
2022-12-15T15:31:36.814Z,97736.38
2022-12-15T15:34:11.563Z,97735.38
2022-12-15T15:36:40.316Z,97750.63
2022-12-15T15:39:14.018Z,97740.91
2022-12-15T15:41:42.724Z,97744.25
2022-12-15T15:44:13.429Z,97739.91
2022-12-15T15:46:46.562Z,97730.00
2022-12-15T15:49:18.255Z,97728.97
2022-12-15T15:51:46.771Z,97724.41
2022-12-15T15:54:17.149Z,97731.66
2022-12-15T15:56:45.676Z,97734.34
2022-12-15T15:59:17.962Z,97728.13
2022-12-15T16:01:47.196Z,97721.94
2022-12-15T16:04:17.097Z,97710.38
2022-12-15T16:06:47.819Z,97697.78
2022-12-15T16:09:17.102Z,97700.63
2022-12-15T16:11:45.775Z,97686.00
2022-12-15T16:14:14.687Z,97684.91
2022-12-15T16:16:43.167Z,97677.50
2022-12-15T16:19:13.437Z,97686.00
2022-12-15T16:21:43.611Z,97692.03
2022-12-15T16:24:16.179Z,97687.31
2022-12-15T16:26:48.101Z,97693.06
2022-12-15T16:29:17.193Z,97682.13
2022-12-15T16:31:46.037Z,97691.84
2022-12-15T16:34:16.632Z,97698.88
2022-12-15T16:36:46.812Z,97711.25
2022-12-15T16:39:32.832Z,97715.81
2022-12-15T16:42:01.360Z,97714.59
2022-12-15T16:44:30.305Z,97718.09
2022-12-15T16:46:59.059Z,97710.88
2022-12-15T16:49:35.053Z,97704.50
2022-12-15T16:52:10.266Z,97704.91
2022-12-15T16:54:46.799Z,97704.06
2022-12-15T16:57:15.418Z,97703.88
2022-12-15T16:59:44.102Z,97710.53
2022-12-15T17:02:24.421Z,97721.28
2022-12-15T17:04:55.262Z,97718.75
2022-12-15T17:07:26.225Z,97723.31
2022-12-15T17:09:54.921Z,97721.44
2022-12-15T17:12:23.386Z,97717.56
2022-12-15T17:14:51.984Z,97718.59
2022-12-15T17:17:21.361Z,97727.47
2022-12-15T17:20:32.645Z,97727.66
2022-12-15T17:22:40.665Z,97728.69
2022-12-15T17:25:16.455Z,97726.81
2022-12-15T17:27:44.949Z,97729.69
2022-12-15T17:30:15.750Z,97732.38
2022-12-15T17:32:44.533Z,97715.38
2022-12-15T17:35:13.265Z,97699.63
2022-12-15T17:37:43.426Z,97710.38
2022-12-15T17:40:19.860Z,97712.41
2022-12-15T17:42:48.825Z,97702.88
2022-12-15T17:45:20.771Z,97699.91
2022-12-15T17:47:50.284Z,97688.78
2022-12-15T17:50:19.109Z,97692.84
2022-12-15T17:52:49.331Z,97700.34
2022-12-15T17:55:23.703Z,97708.41
2022-12-15T17:57:53.703Z,97702.22
2022-12-15T18:00:25.932Z,97716.63
2022-12-15T18:02:54.970Z,97715.38
2022-12-15T18:05:25.234Z,97717.50
2022-12-15T18:07:56.994Z,97713.78
2022-12-15T18:10:30.207Z,97717.28
2022-12-15T18:12:58.854Z,97724.91
2022-12-15T18:15:28.647Z,97720.63
2022-12-15T18:17:57.231Z,97720.34
2022-12-15T18:20:25.867Z,97726.56
2022-12-15T18:22:55.959Z,97722.47
2022-12-15T18:25:26.936Z,97718.59
2022-12-15T18:27:56.095Z,97713.84
2022-12-15T18:30:26.370Z,97717.94
2022-12-15T18:32:56.574Z,97724.97
2022-12-15T18:35:29.451Z,97724.13
2022-12-15T18:37:59.474Z,97733.22
2022-12-15T18:40:29.378Z,97736.53
2022-12-15T18:42:58.274Z,97743.09
2022-12-15T18:45:28.410Z,97736.06
2022-12-15T18:47:57.207Z,97742.47
2022-12-15T18:50:26.569Z,97742.66
2022-12-15T18:52:59.400Z,97735.81
2022-12-15T18:55:30.628Z,97725.06
2022-12-15T18:58:00.823Z,97728.78
2022-12-15T19:00:32.468Z,97733.34
2022-12-15T19:03:01.268Z,97731.25
2022-12-15T19:05:30.100Z,97733.34
2022-12-15T19:08:03.124Z,97724.06
2022-12-15T19:10:34.332Z,97709.63
2022-12-15T19:13:02.846Z,97706.94
2022-12-15T19:15:31.312Z,97711.25
2022-12-15T19:18:17.514Z,97708.84
2022-12-15T19:21:03.440Z,97708.03
2022-12-15T19:23:33.916Z,97686.94
2022-12-15T19:26:02.860Z,97694.78
2022-12-15T19:28:31.427Z,97694.78
2022-12-15T19:30:59.969Z,97696.91
2022-12-15T19:33:28.405Z,97702.28
2022-12-15T19:35:57.577Z,97697.94
2022-12-15T19:38:27.425Z,97699.78
2022-12-15T19:40:57.344Z,97704.31
2022-12-15T19:43:26.226Z,97703.69
2022-12-15T19:45:55.067Z,97696.47
2022-12-15T19:48:24.402Z,97703.47
2022-12-15T19:50:54.980Z,97706.75
2022-12-15T19:53:25.737Z,97704.25
2022-12-15T19:55:58.783Z,97699.25
2022-12-15T19:58:29.923Z,97677.78
2022-12-15T20:00:59.917Z,97684.16
2022-12-15T20:03:29.865Z,97694.88
2022-12-15T20:05:59.139Z,97697.56
2022-12-15T20:08:29.107Z,97702.94
2022-12-15T20:10:59.292Z,97702.94
2022-12-15T20:13:27.857Z,97700.91
2022-12-15T20:15:56.502Z,97692.84
2022-12-15T20:18:25.081Z,97698.06
2022-12-15T20:20:53.595Z,97704.69
2022-12-15T20:23:26.365Z,97698.31
2022-12-15T20:25:55.949Z,97693.94
2022-12-15T20:28:27.714Z,97690.25
2022-12-15T20:30:57.165Z,97686.72
2022-12-15T20:33:25.899Z,97681.34
2022-12-15T20:35:54.984Z,97682.22
2022-12-15T20:38:31.979Z,97678.66
2022-12-15T20:41:00.803Z,97675.16
2022-12-15T20:43:32.560Z,97675.16
2022-12-15T20:46:09.072Z,97677.00
2022-12-15T20:48:37.849Z,97666.28
2022-12-15T20:51:09.867Z,97660.91
2022-12-15T20:53:39.099Z,97662.56
2022-12-15T20:56:08.226Z,97659.88
2022-12-15T20:58:41.071Z,97659.03
2022-12-15T21:01:24.291Z,97657.19
2022-12-15T21:03:54.557Z,97656.19
2022-12-15T21:06:23.822Z,97654.50
2022-12-15T21:08:52.382Z,97651.81
2022-12-15T21:11:25.255Z,97651.00
2022-12-15T21:13:56.504Z,97647.31
2022-12-15T21:16:26.863Z,97635.72
2022-12-15T21:21:45.804Z,97633.03
2022-12-15T21:24:17.239Z,97631.38
2022-12-15T21:26:46.052Z,97636.56
2022-12-15T21:29:17.236Z,97635.72
2022-12-15T21:31:46.159Z,97633.22
2022-12-15T21:34:14.729Z,97630.16
2022-12-15T21:36:45.155Z,97624.16
2022-12-15T21:39:24.808Z,97628.69
2022-12-15T21:41:54.972Z,97625.19
2022-12-15T21:44:25.100Z,97624.53
2022-12-15T21:46:54.700Z,97615.25
2022-12-15T21:49:22.247Z,97612.59
2022-12-15T21:51:53.435Z,97612.59
2022-12-15T21:54:30.712Z,97614.00
2022-12-15T21:56:59.940Z,97607.16
2022-12-15T21:59:31.718Z,97604.47
2022-12-15T22:02:01.423Z,97611.66
2022-12-15T22:04:33.433Z,97608.16
2022-12-15T22:07:02.086Z,97605.47
2022-12-15T22:09:30.623Z,97610.03
2022-12-15T22:11:59.194Z,97600.31
2022-12-15T22:14:31.116Z,97609.19
2022-12-15T22:17:00.113Z,97605.94
2022-12-15T22:19:28.722Z,97600.56
2022-12-15T22:21:57.225Z,97598.72
2022-12-15T22:24:25.756Z,97597.91
2022-12-15T22:26:54.281Z,97598.72
2022-12-15T22:29:23.436Z,97595.22
2022-12-15T22:31:54.973Z,97598.72
2022-12-15T22:34:25.517Z,97603.06
2022-12-15T22:36:54.871Z,97597.69
2022-12-15T22:39:23.605Z,97591.50
2022-12-15T22:44:43.424Z,97578.91
2022-12-15T22:47:13.376Z,97563.59
2022-12-15T22:49:41.866Z,97556.41
2022-12-15T22:52:16.358Z,97553.72
2022-12-15T22:54:46.315Z,97546.50
2022-12-15T22:57:21.461Z,97543.81
2022-12-15T22:59:52.480Z,97536.59
2022-12-15T23:02:24.374Z,97543.81
2022-12-15T23:04:53.057Z,97557.25
2022-12-15T23:07:23.216Z,97544.81
2022-12-15T23:10:11.673Z,97547.50
2022-12-15T23:12:39.164Z,97543.81
2022-12-15T23:15:26.613Z,97534.06
2022-12-15T23:17:56.554Z,97520.47
2022-12-15T23:20:25.005Z,97516.16
2022-12-15T23:22:53.522Z,97525.03
2022-12-15T23:25:23.512Z,97520.66
2022-12-15T23:27:51.960Z,97507.22
2022-12-15T23:30:20.448Z,97508.09
2022-12-15T23:32:49.211Z,97501.88
2022-12-15T23:35:19.481Z,97491.97
2022-12-15T23:37:48.002Z,97498.19
2022-12-15T23:40:21.443Z,97500.84
2022-12-15T23:42:49.988Z,97499.19
2022-12-15T23:45:19.659Z,97499.19
2022-12-15T23:47:48.178Z,97497.53
2022-12-15T23:50:18.482Z,97499.19
2022-12-15T23:52:51.210Z,97495.88
2022-12-15T23:55:20.580Z,97499.38
2022-12-15T23:57:49.251Z,97503.09
